Kezdőlap
METAR-TAF:

METAR-TAF

Repülőterek :

Iowa County Airport

Mineral Point, Wisconsin, Amerikai Egyesült Államok

földrajzi szélesség: 42-53-07N, földrajzi hosszúság: 090-13-55W, magasság: 359 m

Jelenlegi meteorológiai megfigyelések

A jelentés 15 perccel ezelõtt készült, 09:55 UTC
Északnyugati szél 4 kt
Hőmérséklet 0°C
Páratartalom 93%
Légköri nyomás 1014 hPa
Látótávolság: 6.4 km
Borult 500 lábon
Párásság

METAR: KMRJ 130955Z AUTO 32004KT 4SM BR OVC005 00/M01 A2994 RMK AO2

Idő: 04:10 (10:10 UTC)


TAF: hiányzik

Meteorológiai megfigyelések és előrejelzések több, mint 4000 repülőtéren (METAR és TAF jelentéseket).

A térképen piros és sárga pontok jelzik az elérhető meteorológiai állomásokat.

Mozgassa az egeret a pont fölött, hogy megjelenjen az állomás neve.

Azután kattintson az időjárási megfigyelések és előrejelzések megtekintéséhez.

A térkép megváltoztatása: kattintson a fekete keresztel jelölt zöld gombra ráközelítéshez, a vonallal jelölt zöld gombra távolításhoz, vagy a zöld nyilakra a szomszédos térképek eléréséhez.


METAR-TAF: